Terminal Aerodrome Forecast
Issued by NWS

Home | Current Version | Previous Version | Text Only | Print | Product List | Glossary On
Versions: 1 2 3 4 5 6 7 8 9 10 11 12 13 14 15 16 17 18 19 20 21 22
000
FTUS41 KOKX 171400 AAA
TAFSWF
TAF AMD
KSWF 171441Z 1715/1818 VRB04KT P6SM FEW050
     FM172000 20006KT P6SM SCT050
     FM180200 VRB03KT P6SM SCT070
     FM181300 33004KT P6SM FEW050 SCT250
      AMD NOT SKED=

USA.gov is the U.S. government's official web portal to all federal, state and local government web resources and services.